Wofford Heights, California
Current Conditions -  °F | °C
As of 10:54 AM on Thursday 30 Oct 2014 (Local Time) from KBFL Reporting Station
Haze Haze  
Wind Chill: 70°   Ceiling: Unl
Heat Index: 70°   Visibility: 6mi
Dew Point: 45°   Wind: 0mph
Humidity: 41%   Direction: NA
Pressure: 29.96"   Gusts: NA
Location:  35.71°N, 118.47°W
Report Text: KBFL 301754Z 00000KT 6SM HZ CLR 21/07 A2996 RMK AO2 SLP141 T02110072 10211 20133 58004
Loading
Personal Weather Stations






























Interactive Weather Map
Tropical Storm Tracking
New forecast layout! Learn more

10-Day Weather Forecast

Advertisements
Track Severe Weather on mobile